Time;durP1;ratioP1;P1;durP2;ratioP2;P2;SDS_P1;SDS_P2;PMS_P1;PMS_P2;Temp;Humidity;BMP_temperature;BMP_pressure;BME280_temperature;BME280_humidity;BME280_pressure;Samples;Min_cycle;Max_cycle;Signal;HPM_P1;HPM_P2
2023/03/21 00:00:40;;;;;;;15.43;6.30;;;12.00;99.90;;;;;;5029291;28;20212;-74
2023/03/21 00:03:07;;;;;;;15.23;6.43;;;12.20;99.90;;;;;;5029670;28;20217;-75
2023/03/21 00:05:33;;;;;;;15.50;5.63;;;12.20;99.90;;;;;;5012399;28;20217;-74
2023/03/21 00:07:59;;;;;;;16.53;6.23;;;12.20;99.90;;;;;;5023905;28;20220;-75
2023/03/21 00:10:24;;;;;;;17.30;6.03;;;12.20;99.90;;;;;;5029026;28;20233;-74
2023/03/21 00:12:54;;;;;;;15.70;5.63;;;12.20;99.90;;;;;;5011187;28;20221;-75
2023/03/21 00:15:20;;;;;;;19.00;6.20;;;12.10;99.90;;;;;;5013696;28;20226;-74
2023/03/21 00:17:49;;;;;;;13.47;5.50;;;12.10;99.90;;;;;;5028908;28;20220;-74
2023/03/21 00:20:15;;;;;;;15.70;5.80;;;12.00;99.90;;;;;;5009431;28;20775;-74
2023/03/21 00:22:41;;;;;;;13.93;5.63;;;12.00;99.90;;;;;;5027699;28;20705;-75
2023/03/21 00:25:09;;;;;;;12.00;5.13;;;12.00;99.90;;;;;;4995909;28;20221;-75
2023/03/21 00:27:35;;;;;;;12.73;4.70;;;12.00;99.90;;;;;;5003915;28;20213;-75
2023/03/21 00:30:03;;;;;;;16.77;5.00;;;12.00;99.90;;;;;;4991981;28;20381;-74
2023/03/21 00:32:29;;;;;;;12.73;4.90;;;12.00;99.90;;;;;;4999893;28;20253;-74
2023/03/21 00:34:54;;;;;;;13.30;4.60;;;12.00;99.90;;;;;;5007177;28;20221;-75
2023/03/21 00:37:20;;;;;;;13.63;4.50;;;12.00;99.90;;;;;;5010567;28;20320;-74
2023/03/21 00:39:48;;;;;;;13.50;4.77;;;12.10;99.90;;;;;;5029099;28;20212;-74
2023/03/21 00:42:17;;;;;;;15.83;4.37;;;12.10;99.90;;;;;;4998702;28;20276;-74
2023/03/21 00:44:43;;;;;;;11.80;4.20;;;12.10;99.90;;;;;;5025997;28;20308;-74
2023/03/21 00:47:12;;;;;;;12.60;3.93;;;12.20;99.90;;;;;;5022591;28;20627;-75
2023/03/21 00:49:38;;;;;;;14.37;4.30;;;12.20;99.90;;;;;;4981788;28;20601;-74
2023/03/21 00:52:06;;;;;;;11.13;4.40;;;12.20;99.90;;;;;;5009418;28;20221;-74
2023/03/21 00:54:33;;;;;;;13.90;4.33;;;12.10;99.90;;;;;;4979755;28;20712;-74
2023/03/21 00:57:01;;;;;;;12.97;4.67;;;12.00;99.90;;;;;;5000477;28;20324;-74
2023/03/21 00:59:29;;;;;;;12.20;4.13;;;11.90;99.90;;;;;;5026839;28;20303;-74
2023/03/21 01:01:54;;;;;;;12.37;4.23;;;11.90;99.90;;;;;;4994732;28;20293;-74
2023/03/21 01:04:25;;;;;;;16.30;4.10;;;11.90;99.90;;;;;;5010381;28;20226;-74
2023/03/21 01:06:52;;;;;;;14.17;4.23;;;12.00;99.90;;;;;;5015422;28;20284;-74
2023/03/21 01:09:23;;;;;;;13.77;4.17;;;12.00;99.90;;;;;;4992627;28;20214;-74
2023/03/21 01:11:50;;;;;;;11.67;4.27;;;12.00;99.90;;;;;;5001322;28;20225;-74
2023/03/21 01:14:19;;;;;;;13.63;4.10;;;12.10;99.90;;;;;;5027584;28;20213;-74
2023/03/21 01:16:44;;;;;;;12.30;3.80;;;12.00;99.90;;;;;;5008007;28;20343;-73
2023/03/21 01:19:16;;;;;;;16.73;4.53;;;12.00;99.90;;;;;;5025730;28;20240;-74
2023/03/21 01:21:43;;;;;;;16.13;4.40;;;12.00;99.90;;;;;;4994609;28;20592;-74
2023/03/21 01:24:09;;;;;;;14.20;4.63;;;12.10;99.90;;;;;;5008318;28;20617;-74
2023/03/21 01:26:36;;;;;;;12.50;4.43;;;12.00;99.90;;;;;;5011058;28;20745;-74
2023/03/21 01:29:03;;;;;;;13.50;4.77;;;12.00;99.90;;;;;;5008047;28;20237;-74
2023/03/21 01:31:29;;;;;;;14.87;4.70;;;12.00;99.90;;;;;;5010997;28;20217;-74
2023/03/21 01:33:55;;;;;;;14.63;5.07;;;12.00;99.90;;;;;;5009744;28;20265;-74
2023/03/21 01:36:23;;;;;;;16.73;4.90;;;12.20;99.90;;;;;;5006933;28;20798;-74
2023/03/21 01:38:52;;;;;;;17.27;5.47;;;12.30;99.90;;;;;;5010154;28;20220;-74
2023/03/21 01:41:38;;;;;;;17.10;5.93;;;12.30;99.90;;;;;;4994740;28;20244;-74
2023/03/21 01:44:05;;;;;;;19.97;5.87;;;12.30;99.90;;;;;;4986910;28;20649;-74
2023/03/21 01:46:48;;;;;;;17.87;5.67;;;12.40;99.90;;;;;;5003232;28;20208;-74
2023/03/21 01:49:37;;;;;;;18.93;5.57;;;12.50;99.90;;;;;;5002449;28;20247;-74
2023/03/21 01:52:28;;;;;;;16.37;5.30;;;12.70;99.90;;;;;;5005942;28;20213;-75
2023/03/21 01:54:55;;;;;;;18.50;5.47;;;12.70;99.90;;;;;;5008970;28;20217;-74
2023/03/21 01:57:31;;;;;;;15.33;5.13;;;12.60;99.90;;;;;;5008312;28;20284;-74
2023/03/21 02:00:00;;;;;;;13.57;4.30;;;12.60;99.90;;;;;;5016723;28;20681;-74
2023/03/21 02:02:54;;;;;;;14.00;4.57;;;12.50;99.90;;;;;;5003596;28;20624;-74
2023/03/21 02:06:01;;;;;;;14.30;4.57;;;12.60;99.90;;;;;;5013431;28;20217;-74
2023/03/21 02:08:34;;;;;;;15.87;4.70;;;12.70;99.90;;;;;;5012844;28;20221;-74
2023/03/21 02:11:06;;;;;;;16.53;4.93;;;12.70;99.90;;;;;;5007722;28;20230;-74
2023/03/21 02:13:39;;;;;;;16.60;5.23;;;12.80;99.90;;;;;;5005702;28;20241;-74
2023/03/21 02:16:26;;;;;;;18.30;4.70;;;12.90;99.90;;;;;;4988884;28;20214;-75
2023/03/21 02:19:09;;;;;;;14.60;4.70;;;12.90;99.90;;;;;;4989899;28;20242;-74
2023/03/21 02:21:47;;;;;;;16.40;4.50;;;12.80;99.90;;;;;;5001252;28;20214;-74
2023/03/21 02:24:40;;;;;;;15.63;4.67;;;12.60;99.90;;;;;;5018478;28;20316;-74
2023/03/21 02:27:22;;;;;;;15.40;4.40;;;12.40;99.90;;;;;;5005999;28;20221;-74
2023/03/21 02:29:54;;;;;;;16.33;4.67;;;12.50;99.90;;;;;;5008180;28;20695;-74
2023/03/21 02:32:36;;;;;;;10.97;4.00;;;12.40;99.90;;;;;;5005739;28;20413;-74
2023/03/21 02:35:36;;;;;;;14.10;4.53;;;12.40;99.90;;;;;;5002210;28;20663;-74
2023/03/21 02:38:30;;;;;;;15.60;4.70;;;12.30;99.90;;;;;;5010722;28;20251;-74
2023/03/21 02:41:17;;;;;;;16.27;4.70;;;12.40;99.90;;;;;;5016865;28;20236;-74
2023/03/21 02:44:03;;;;;;;18.77;4.50;;;12.60;99.90;;;;;;5005909;28;20674;-74
2023/03/21 02:46:55;;;;;;;15.57;4.37;;;12.60;99.90;;;;;;4986639;28;20224;-74
2023/03/21 02:49:27;;;;;;;11.63;3.60;;;12.60;99.90;;;;;;5017329;28;20241;-74
2023/03/21 02:51:56;;;;;;;13.47;4.40;;;12.70;99.90;;;;;;4990725;28;20222;-74
2023/03/21 02:54:25;;;;;;;14.10;4.20;;;12.80;99.90;;;;;;4992574;28;20220;-74
2023/03/21 02:56:54;;;;;;;17.63;4.20;;;12.70;99.90;;;;;;5000813;28;20296;-74
2023/03/21 02:59:23;;;;;;;14.87;3.87;;;12.60;99.90;;;;;;4985701;28;20368;-74
2023/03/21 03:01:51;;;;;;;12.30;3.47;;;12.80;99.90;;;;;;5004735;28;20218;-74
2023/03/21 03:04:22;;;;;;;9.67;3.83;;;12.80;99.90;;;;;;5007090;28;20232;-74
2023/03/21 03:07:10;;;;;;;16.27;4.30;;;12.80;99.90;;;;;;4990077;28;20601;-74
2023/03/21 03:10:13;;;;;;;15.30;4.37;;;12.80;99.90;;;;;;5007726;28;20226;-74
2023/03/21 03:12:56;;;;;;;13.27;4.00;;;12.90;99.90;;;;;;4990596;28;20222;-74
2023/03/21 03:15:35;;;;;;;16.73;4.33;;;13.00;99.90;;;;;;5003521;28;20228;-74
2023/03/21 03:18:26;;;;;;;15.57;4.23;;;12.90;99.90;;;;;;5006433;28;20236;-74
2023/03/21 03:21:24;;;;;;;16.50;4.63;;;13.00;99.90;;;;;;5003461;28;20303;-74
2023/03/21 03:24:02;;;;;;;14.07;4.83;;;13.10;99.90;;;;;;5004583;28;20218;-74
2023/03/21 03:26:35;;;;;;;15.37;4.17;;;13.10;99.90;;;;;;5007572;28;20722;-74
2023/03/21 03:29:06;;;;;;;17.53;4.97;;;13.00;99.90;;;;;;4989946;28;20707;-74
2023/03/21 03:31:42;;;;;;;13.50;4.57;;;13.20;99.90;;;;;;5005409;28;20217;-74
2023/03/21 03:34:13;;;;;;;13.00;4.27;;;13.10;99.90;;;;;;5004104;28;20222;-74
2023/03/21 03:36:46;;;;;;;14.20;4.57;;;12.90;99.90;;;;;;5009838;28;20236;-74
2023/03/21 03:39:15;;;;;;;16.17;4.47;;;12.90;99.90;;;;;;4995923;28;20228;-74
2023/03/21 03:41:58;;;;;;;14.87;4.60;;;12.80;99.90;;;;;;5010756;28;20256;-75
2023/03/21 03:44:28;;;;;;;16.23;4.37;;;12.70;99.90;;;;;;4998729;28;20225;-74
2023/03/21 03:47:17;;;;;;;15.93;5.50;;;12.70;99.90;;;;;;4993131;28;20593;-74
2023/03/21 03:49:59;;;;;;;18.33;5.30;;;12.70;99.90;;;;;;5022770;28;20307;-74
2023/03/21 03:52:39;;;;;;;19.07;5.37;;;12.90;99.90;;;;;;4994381;28;20228;-74
2023/03/21 03:55:15;;;;;;;18.03;6.10;;;12.90;99.90;;;;;;5010064;28;20222;-74
2023/03/21 03:57:43;;;;;;;17.23;5.30;;;13.00;99.90;;;;;;4999264;28;20695;-74
2023/03/21 04:00:11;;;;;;;17.57;6.37;;;13.10;99.90;;;;;;4998721;28;20242;-74
2023/03/21 04:02:43;;;;;;;20.13;6.00;;;13.10;99.90;;;;;;5021742;28;20221;-74
2023/03/21 04:05:11;;;;;;;18.63;6.33;;;13.20;99.90;;;;;;5004362;28;20221;-74
2023/03/21 04:07:36;;;;;;;14.53;6.20;;;13.10;99.90;;;;;;4991697;28;20230;-74
2023/03/21 04:10:03;;;;;;;15.30;6.20;;;13.00;99.90;;;;;;5010598;28;20237;-73
2023/03/21 04:12:36;;;;;;;19.53;6.60;;;13.00;99.90;;;;;;5018338;28;20228;-74
2023/03/21 04:15:42;;;;;;;19.90;7.50;;;13.00;99.90;;;;;;5013880;28;20205;-74
2023/03/21 04:18:13;;;;;;;17.30;6.63;;;12.90;99.90;;;;;;5011754;28;20232;-74
2023/03/21 04:20:38;;;;;;;18.87;6.83;;;12.80;99.90;;;;;;5007875;28;20220;-73
2023/03/21 04:23:06;;;;;;;21.13;6.93;;;12.90;99.90;;;;;;5027286;28;20222;-74
2023/03/21 04:25:35;;;;;;;18.77;6.60;;;12.90;99.90;;;;;;5011836;28;20228;-74
2023/03/21 04:28:03;;;;;;;21.37;7.13;;;12.90;99.90;;;;;;5009630;28;20217;-74
2023/03/21 04:30:45;;;;;;;22.77;7.33;;;12.80;99.90;;;;;;5012411;28;20236;-73
2023/03/21 04:33:14;;;;;;;17.10;6.67;;;12.70;99.90;;;;;;5005804;28;20220;-74
2023/03/21 04:35:48;;;;;;;19.40;7.07;;;12.80;99.90;;;;;;4997358;28;20215;-74
2023/03/21 04:38:14;;;;;;;17.67;7.13;;;12.80;99.90;;;;;;5007529;28;20553;-74
2023/03/21 04:40:40;;;;;;;19.90;7.23;;;12.90;99.90;;;;;;5027547;28;20214;-74
2023/03/21 04:43:05;;;;;;;18.83;6.53;;;12.90;99.90;;;;;;5012760;28;20218;-75
2023/03/21 04:45:31;;;;;;;22.30;8.10;;;13.00;99.90;;;;;;5010533;28;20232;-74
2023/03/21 04:47:57;;;;;;;24.03;6.93;;;13.00;99.90;;;;;;5011003;28;20232;-75
2023/03/21 04:50:23;;;;;;;17.07;6.43;;;13.10;99.90;;;;;;5010794;28;20229;-75
2023/03/21 04:52:49;;;;;;;19.20;6.47;;;13.10;99.90;;;;;;5027982;28;20216;-74
2023/03/21 04:55:15;;;;;;;20.60;7.13;;;13.10;99.90;;;;;;5021279;28;20214;-75
2023/03/21 04:57:41;;;;;;;20.27;6.87;;;13.10;99.90;;;;;;5027387;28;20289;-74
2023/03/21 05:00:09;;;;;;;21.17;6.97;;;13.20;99.90;;;;;;5000888;28;20221;-75
2023/03/21 05:02:35;;;;;;;17.20;6.27;;;13.20;99.90;;;;;;5000822;28;20504;-75
2023/03/21 05:05:01;;;;;;;17.03;6.37;;;13.20;99.90;;;;;;5036952;28;20251;-75
2023/03/21 05:07:27;;;;;;;16.73;6.57;;;13.30;99.90;;;;;;5045292;28;20226;-75
2023/03/21 05:09:53;;;;;;;19.03;6.53;;;13.20;99.90;;;;;;5017078;28;20250;-74
2023/03/21 05:12:19;;;;;;;16.03;6.50;;;13.20;99.90;;;;;;4992539;28;20250;-74
2023/03/21 05:14:45;;;;;;;17.93;6.70;;;13.20;99.90;;;;;;5003095;28;20229;-75
2023/03/21 05:17:21;;;;;;;14.70;6.60;;;13.20;99.90;;;;;;5016175;28;20246;-74
2023/03/21 05:19:51;;;;;;;18.63;6.00;;;13.20;99.90;;;;;;5022864;28;20268;-74
2023/03/21 05:22:18;;;;;;;19.37;6.77;;;13.20;99.90;;;;;;5008552;28;20209;-75
2023/03/21 05:24:48;;;;;;;18.43;7.00;;;13.20;99.90;;;;;;4995938;28;20231;-75
2023/03/21 05:27:34;;;;;;;15.20;5.70;;;13.20;99.90;;;;;;5005475;28;20230;-75
2023/03/21 05:30:12;;;;;;;17.37;5.83;;;13.20;99.90;;;;;;5003978;28;20234;-74
2023/03/21 05:32:39;;;;;;;19.30;6.20;;;13.10;99.90;;;;;;4986746;28;20225;-74
2023/03/21 05:35:09;;;;;;;15.07;5.57;;;13.10;99.90;;;;;;5009172;28;20245;-74
2023/03/21 05:37:35;;;;;;;16.07;6.50;;;13.10;99.90;;;;;;5008188;28;20635;-75
2023/03/21 05:40:01;;;;;;;16.20;5.73;;;13.10;99.90;;;;;;4999166;28;20258;-75
2023/03/21 05:42:30;;;;;;;17.23;5.70;;;13.10;99.90;;;;;;5010051;28;20229;-75
2023/03/21 05:44:56;;;;;;;16.30;5.20;;;13.10;99.90;;;;;;5008778;28;20580;-74
2023/03/21 05:47:27;;;;;;;18.43;5.37;;;13.20;99.90;;;;;;4994848;28;20231;-74
2023/03/21 05:49:55;;;;;;;17.80;6.13;;;13.30;99.90;;;;;;5008542;28;20221;-74
2023/03/21 05:52:22;;;;;;;19.53;6.23;;;13.20;99.90;;;;;;4991592;28;20234;-74
2023/03/21 05:54:48;;;;;;;15.73;5.67;;;13.20;99.90;;;;;;5008255;28;20220;-74
2023/03/21 05:57:14;;;;;;;17.30;6.00;;;13.20;99.90;;;;;;5008810;28;20236;-74
2023/03/21 06:00:02;;;;;;;18.10;5.73;;;13.10;99.90;;;;;;4994786;28;20303;-74
2023/03/21 06:02:30;;;;;;;18.60;5.80;;;12.90;99.90;;;;;;5010585;28;20216;-74
2023/03/21 06:04:59;;;;;;;20.23;6.10;;;12.70;99.90;;;;;;4992844;28;20241;-74
2023/03/21 06:07:25;;;;;;;17.30;6.00;;;12.70;99.90;;;;;;4989376;28;20219;-74
2023/03/21 06:09:51;;;;;;;16.03;6.17;;;12.60;99.90;;;;;;5026464;28;20710;-74
2023/03/21 06:12:17;;;;;;;15.13;5.83;;;12.60;99.90;;;;;;5007751;28;20242;-74
2023/03/21 06:15:04;;;;;;;16.93;6.10;;;12.50;99.90;;;;;;5010312;28;20267;-74
2023/03/21 06:17:34;;;;;;;15.17;6.37;;;12.40;99.90;;;;;;5008220;28;20247;-74
2023/03/21 06:20:08;;;;;;;13.47;5.60;;;12.40;99.90;;;;;;5008211;28;20225;-74
2023/03/21 06:22:45;;;;;;;16.73;6.07;;;12.30;99.90;;;;;;5006861;28;20695;-75
2023/03/21 06:25:11;;;;;;;16.93;6.03;;;12.40;99.90;;;;;;5006922;28;20235;-74
2023/03/21 06:27:37;;;;;;;17.47;6.53;;;12.30;99.90;;;;;;4995502;28;20216;-75
2023/03/21 06:30:06;;;;;;;15.20;5.83;;;12.40;99.90;;;;;;5007696;28;20801;-75
2023/03/21 06:32:37;;;;;;;20.57;6.53;;;12.40;99.90;;;;;;5005398;28;20311;-75
2023/03/21 06:35:10;;;;;;;15.83;5.77;;;12.30;99.90;;;;;;5005247;28;20213;-75
2023/03/21 06:37:37;;;;;;;17.60;5.47;;;12.40;99.90;;;;;;5007563;28;20232;-75
2023/03/21 06:40:04;;;;;;;13.90;5.30;;;12.40;99.90;;;;;;5008679;28;20589;-74
2023/03/21 06:42:31;;;;;;;15.87;4.80;;;12.50;99.90;;;;;;5027103;28;20221;-74
2023/03/21 06:45:02;;;;;;;12.67;4.60;;;12.30;99.90;;;;;;4999945;28;20214;-74
2023/03/21 06:47:28;;;;;;;12.73;5.13;;;12.20;99.90;;;;;;5000072;28;20225;-74
2023/03/21 06:49:54;;;;;;;14.67;4.93;;;12.30;99.90;;;;;;5004094;28;20233;-74
2023/03/21 06:52:20;;;;;;;12.53;4.50;;;12.30;99.90;;;;;;5008080;28;20223;-72
2023/03/21 06:54:46;;;;;;;17.37;4.97;;;12.20;99.90;;;;;;5006980;28;20211;-72
2023/03/21 06:57:16;;;;;;;11.00;3.83;;;12.20;99.90;;;;;;5000333;28;20232;-72
2023/03/21 06:59:43;;;;;;;11.97;4.13;;;12.20;99.90;;;;;;4991012;28;20213;-72
2023/03/21 07:02:20;;;;;;;15.50;4.07;;;12.30;99.90;;;;;;5007852;28;20297;-73
2023/03/21 07:04:55;;;;;;;14.83;4.10;;;12.40;99.90;;;;;;5003410;28;20218;-73
2023/03/21 07:07:26;;;;;;;15.40;4.37;;;12.30;99.90;;;;;;4994531;28;20228;-74
2023/03/21 07:09:52;;;;;;;13.13;4.30;;;12.40;99.90;;;;;;5003353;28;20230;-74
2023/03/21 07:12:17;;;;;;;13.13;4.00;;;12.30;99.90;;;;;;5008336;28;20217;-74
2023/03/21 07:14:59;;;;;;;10.03;3.77;;;12.30;99.90;;;;;;5008601;28;20574;-74
2023/03/21 07:17:25;;;;;;;12.47;3.40;;;12.30;99.90;;;;;;5028108;28;20237;-74
2023/03/21 07:19:51;;;;;;;14.53;4.07;;;12.30;99.90;;;;;;5019307;28;20692;-75
2023/03/21 07:22:18;;;;;;;10.90;3.13;;;12.40;99.90;;;;;;4987784;28;20241;-74
2023/03/21 07:24:47;;;;;;;10.40;3.60;;;12.50;99.90;;;;;;5008685;28;20236;-74
2023/03/21 07:27:15;;;;;;;9.80;3.13;;;12.60;99.90;;;;;;4993599;28;20712;-74
2023/03/21 07:29:40;;;;;;;10.20;3.17;;;12.70;99.90;;;;;;5025356;28;20224;-74
2023/03/21 07:32:06;;;;;;;10.83;3.13;;;12.80;99.90;;;;;;5029129;28;20213;-74
2023/03/21 07:34:32;;;;;;;9.40;3.40;;;13.00;99.90;;;;;;4994916;28;20235;-74
2023/03/21 07:36:59;;;;;;;9.97;3.47;;;13.10;99.90;;;;;;5012122;28;20236;-75
2023/03/21 07:39:26;;;;;;;9.30;3.10;;;13.20;99.90;;;;;;5005389;28;20228;-75
2023/03/21 07:41:55;;;;;;;12.33;3.33;;;13.10;99.90;;;;;;5010874;28;20225;-75
2023/03/21 07:44:29;;;;;;;11.37;3.27;;;13.00;99.90;;;;;;4996439;28;20217;-74
2023/03/21 07:47:01;;;;;;;12.10;3.57;;;13.00;99.90;;;;;;5018345;28;20277;-74
2023/03/21 07:49:27;;;;;;;9.83;3.53;;;12.90;99.90;;;;;;5006719;28;20597;-74
2023/03/21 07:51:52;;;;;;;13.27;3.97;;;12.80;99.90;;;;;;5026615;28;20225;-74
2023/03/21 07:54:21;;;;;;;9.27;3.43;;;12.80;99.90;;;;;;5029931;28;20760;-74
2023/03/21 07:56:46;;;;;;;12.37;3.80;;;12.80;99.90;;;;;;5028911;28;20206;-74
2023/03/21 07:59:12;;;;;;;10.63;3.83;;;12.50;99.90;;;;;;5023251;28;20233;-75
2023/03/21 08:01:37;;;;;;;13.67;4.23;;;12.50;99.90;;;;;;5010297;28;20226;-74
2023/03/21 08:04:03;;;;;;;10.87;4.10;;;12.70;99.90;;;;;;5028910;28;20309;-74
2023/03/21 08:06:31;;;;;;;13.03;3.60;;;12.60;99.90;;;;;;5025398;28;20688;-74
2023/03/21 08:08:57;;;;;;;14.73;3.90;;;12.60;99.90;;;;;;4993138;28;20229;-74
2023/03/21 08:11:23;;;;;;;12.17;4.40;;;12.70;99.90;;;;;;5011541;28;20570;-74
2023/03/21 08:13:50;;;;;;;12.37;3.80;;;12.80;99.90;;;;;;5025251;28;20216;-75
2023/03/21 08:16:16;;;;;;;12.03;4.43;;;12.80;99.90;;;;;;5026681;28;20218;-74
2023/03/21 08:18:42;;;;;;;11.00;4.03;;;12.80;99.90;;;;;;4994228;28;20224;-74
2023/03/21 08:21:08;;;;;;;15.17;4.40;;;12.70;99.90;;;;;;5028308;28;20276;-74
2023/03/21 08:23:35;;;;;;;12.10;3.53;;;12.70;99.90;;;;;;5030045;28;20217;-74
2023/03/21 08:26:00;;;;;;;16.03;4.30;;;12.70;99.90;;;;;;5012015;28;20217;-74
2023/03/21 08:28:26;;;;;;;13.97;4.10;;;12.60;99.90;;;;;;5011041;28;20322;-74
2023/03/21 08:30:52;;;;;;;12.67;4.10;;;12.60;99.90;;;;;;5026977;28;20226;-74
2023/03/21 08:33:19;;;;;;;13.87;4.17;;;12.70;99.90;;;;;;5027776;28;20982;-74
2023/03/21 08:35:45;;;;;;;12.90;4.30;;;12.70;99.90;;;;;;5026461;28;20232;-74
2023/03/21 08:38:11;;;;;;;12.77;3.97;;;12.80;99.90;;;;;;4998138;28;20222;-74
2023/03/21 08:40:37;;;;;;;9.97;3.80;;;12.90;99.90;;;;;;4995339;28;20268;-74
2023/03/21 08:43:03;;;;;;;12.90;4.20;;;13.00;99.90;;;;;;4998546;28;20276;-74
2023/03/21 08:45:29;;;;;;;13.20;3.57;;;13.00;99.90;;;;;;5025781;28;20220;-74
2023/03/21 08:47:55;;;;;;;13.37;3.80;;;13.20;99.90;;;;;;5009174;28;20221;-74
2023/03/21 08:50:25;;;;;;;11.97;3.90;;;13.40;99.90;;;;;;5016380;28;20228;-75
2023/03/21 08:52:51;;;;;;;10.57;3.67;;;13.60;99.90;;;;;;5017171;28;20226;-74
2023/03/21 08:55:17;;;;;;;12.00;3.53;;;13.80;99.90;;;;;;5008534;28;20282;-76
2023/03/21 08:57:44;;;;;;;8.73;3.20;;;14.00;99.90;;;;;;5008238;28;20310;-75
2023/03/21 09:00:13;;;;;;;13.20;3.87;;;13.80;99.90;;;;;;5005300;28;20230;-74
2023/03/21 09:02:45;;;;;;;13.00;3.80;;;13.90;99.90;;;;;;5020255;28;20216;-74
2023/03/21 09:05:11;;;;;;;10.57;3.43;;;13.90;99.90;;;;;;5017844;28;20778;-75
2023/03/21 09:07:39;;;;;;;10.37;3.90;;;14.10;99.90;;;;;;5017433;28;20243;-74
2023/03/21 09:10:06;;;;;;;12.10;4.07;;;14.00;99.90;;;;;;5007658;28;20239;-75
2023/03/21 09:12:33;;;;;;;9.83;3.80;;;13.80;99.90;;;;;;5017454;28;20290;-74
2023/03/21 09:15:01;;;;;;;13.03;3.40;;;13.90;99.90;;;;;;5005687;28;20225;-75
2023/03/21 09:17:28;;;;;;;11.60;3.37;;;13.90;99.90;;;;;;5005866;28;20607;-75
2023/03/21 09:19:55;;;;;;;15.83;3.87;;;13.90;99.90;;;;;;5006191;28;20223;-75
2023/03/21 09:22:22;;;;;;;10.60;3.47;;;13.90;99.90;;;;;;5023865;28;20278;-75
2023/03/21 09:24:49;;;;;;;11.33;3.37;;;13.80;99.90;;;;;;4987382;28;20253;-75
2023/03/21 09:27:21;;;;;;;10.67;3.33;;;13.90;99.90;;;;;;5023631;28;20227;-76
2023/03/21 09:29:48;;;;;;;10.17;3.57;;;13.90;99.90;;;;;;5018024;28;20743;-74
2023/03/21 09:32:15;;;;;;;13.33;3.30;;;14.00;99.90;;;;;;5027489;28;20213;-74
2023/03/21 09:34:41;;;;;;;10.80;3.30;;;14.00;99.90;;;;;;5008289;28;20211;-74
2023/03/21 09:37:12;;;;;;;12.17;3.07;;;14.10;99.90;;;;;;5021282;28;20218;-74
2023/03/21 09:39:44;;;;;;;9.57;3.07;;;14.20;99.90;;;;;;4996304;28;20657;-75
2023/03/21 09:42:35;;;;;;;13.20;3.40;;;14.40;99.90;;;;;;5026722;28;20231;-75
2023/03/21 09:45:03;;;;;;;10.30;3.13;;;14.70;99.90;;;;;;4996442;28;20591;-75
2023/03/21 09:47:36;;;;;;;10.60;3.27;;;14.90;99.90;;;;;;4999924;28;20223;-75
2023/03/21 09:50:16;;;;;;;14.23;3.50;;;15.10;99.90;;;;;;4992663;28;20698;-75
2023/03/21 09:52:55;;;;;;;11.70;3.10;;;15.20;99.90;;;;;;5007728;28;20286;-75
2023/03/21 09:55:29;;;;;;;7.80;3.40;;;15.20;99.90;;;;;;4999171;28;20232;-75
2023/03/21 09:58:11;;;;;;;13.03;3.30;;;15.30;99.90;;;;;;5006747;28;20228;-75
2023/03/21 10:00:42;;;;;;;11.73;3.67;;;15.20;99.90;;;;;;4998839;28;20684;-75
2023/03/21 10:03:34;;;;;;;12.93;3.37;;;15.30;99.90;;;;;;5010312;28;20240;-75
2023/03/21 10:06:04;;;;;;;11.40;3.50;;;15.10;99.90;;;;;;5006537;28;20229;-75
2023/03/21 10:08:36;;;;;;;11.10;3.60;;;14.90;99.90;;;;;;5026338;28;20223;-75
2023/03/21 10:11:26;;;;;;;10.13;3.87;;;14.90;99.90;;;;;;4999694;28;20231;-75
2023/03/21 10:14:18;;;;;;;11.73;3.40;;;14.90;99.90;;;;;;5024272;28;20223;-76
2023/03/21 10:16:51;;;;;;;14.00;4.47;;;15.00;99.90;;;;;;5009523;28;20220;-75
2023/03/21 10:19:18;;;;;;;13.20;4.20;;;15.00;99.90;;;;;;5008556;28;20318;-75
2023/03/21 10:21:49;;;;;;;10.13;3.20;;;14.90;99.90;;;;;;5025702;28;20225;-74
2023/03/21 10:24:26;;;;;;;13.27;3.73;;;14.80;99.90;;;;;;5000199;28;20563;-75
2023/03/21 10:26:54;;;;;;;10.97;3.40;;;14.90;99.90;;;;;;5005394;28;20672;-75
2023/03/21 10:29:26;;;;;;;13.60;3.90;;;14.90;99.90;;;;;;5014605;28;20221;-75
2023/03/21 10:31:53;;;;;;;10.67;3.60;;;15.30;99.90;;;;;;5007823;28;20286;-75
2023/03/21 10:34:51;;;;;;;12.97;3.97;;;15.60;99.90;;;;;;5025347;28;20212;-75
2023/03/21 10:37:17;;;;;;;8.13;3.13;;;16.00;99.90;;;;;;4994442;28;20214;-75
2023/03/21 10:39:47;;;;;;;12.43;3.37;;;16.40;99.90;;;;;;5006899;28;20218;-75
2023/03/21 10:42:25;;;;;;;12.67;3.83;;;16.70;99.90;;;;;;5021511;28;20221;-75
2023/03/21 10:44:56;;;;;;;10.53;3.33;;;17.00;99.90;;;;;;5002931;28;20218;-74
2023/03/21 10:47:30;;;;;;;9.53;3.37;;;17.70;99.90;;;;;;4989833;28;20326;-75
2023/03/21 10:50:25;;;;;;;9.80;3.53;;;18.40;99.90;;;;;;5005639;28;20272;-75
2023/03/21 10:54:28;;;;;;;8.87;3.30;;;18.20;99.90;;;;;;7316542;19;20783;-74
2023/03/21 10:56:56;;;;;;;12.50;3.50;;;18.70;99.90;;;;;;7316443;19;20188;-74
2023/03/21 10:59:23;;;;;;;11.17;3.77;;;19.00;99.90;;;;;;7316892;19;20198;-74
2023/03/21 11:01:51;;;;;;;11.43;4.00;;;19.10;99.90;;;;;;7316265;19;20658;-75
2023/03/21 11:04:21;;;;;;;8.60;3.77;;;19.30;99.90;;;;;;7317062;19;20203;-75
2023/03/21 11:06:53;;;;;;;9.00;3.70;;;20.00;99.90;;;;;;7315980;19;20570;-75
2023/03/21 11:09:23;;;;;;;13.10;3.80;;;20.50;99.90;;;;;;7315069;19;20205;-74
2023/03/21 11:12:01;;;;;;;11.97;3.73;;;20.70;99.90;;;;;;7317002;19;20699;-75
2023/03/21 11:14:39;;;;;;;9.27;3.97;;;20.40;99.90;;;;;;7316997;19;20276;-75
2023/03/21 11:17:17;;;;;;;11.43;3.70;;;19.90;99.90;;;;;;7294573;19;20188;-75
2023/03/21 11:19:53;;;;;;;8.27;3.60;;;19.70;99.90;;;;;;7315583;19;20185;-75
2023/03/21 11:22:21;;;;;;;13.47;3.70;;;19.60;99.90;;;;;;7316682;19;20188;-75
2023/03/21 11:24:56;;;;;;;12.63;3.60;;;19.00;99.90;;;;;;7317294;19;20209;-75
2023/03/21 11:27:23;;;;;;;12.47;4.00;;;18.40;99.90;;;;;;7317332;19;20699;-74
2023/03/21 11:29:50;;;;;;;10.33;3.70;;;17.90;99.90;;;;;;7317563;19;20577;-75
2023/03/21 11:32:22;;;;;;;10.07;3.57;;;17.70;99.90;;;;;;7316242;19;20188;-75
2023/03/21 11:34:52;;;;;;;8.47;3.23;;;18.20;99.90;;;;;;7316073;19;20199;-75
2023/03/21 11:37:27;;;;;;;13.10;3.60;;;18.50;99.90;;;;;;7316409;19;20187;-76
2023/03/21 11:40:06;;;;;;;11.57;3.70;;;18.90;99.90;;;;;;7316289;19;20196;-76
2023/03/21 11:42:41;;;;;;;10.10;3.40;;;19.10;99.90;;;;;;7308876;19;20187;-75
2023/03/21 11:45:14;;;;;;;14.20;3.50;;;19.00;99.90;;;;;;7314746;19;20204;-75
2023/03/21 11:47:40;;;;;;;9.50;3.63;;;18.60;99.90;;;;;;7316219;19;20188;-76
2023/03/21 11:50:27;;;;;;;8.77;3.57;;;18.60;99.90;;;;;;7315649;19;20217;-75
2023/03/21 11:53:17;;;;;;;9.53;3.77;;;18.50;99.90;;;;;;7315202;19;20185;-75
2023/03/21 11:56:01;;;;;;;11.13;3.60;;;18.10;99.90;;;;;;7210323;19;2004819;-75
2023/03/21 11:58:37;;;;;;;9.73;3.40;;;18.00;99.90;;;;;;7315485;19;20184;-75
2023/03/21 12:01:18;;;;;;;11.60;3.53;;;17.90;99.90;;;;;;7299329;19;20184;-75
2023/03/21 12:04:05;;;;;;;11.77;3.73;;;18.00;99.90;;;;;;7306707;19;20556;-75
2023/03/21 12:06:45;;;;;;;11.00;4.20;;;18.40;99.90;;;;;;7287640;19;20213;-75
2023/03/21 12:09:56;;;;;;;13.20;3.80;;;18.60;99.90;;;;;;7184697;19;2004672;-75
2023/03/21 12:12:30;;;;;;;12.03;3.53;;;19.30;99.90;;;;;;7185372;19;2004743;-76
2023/03/21 12:14:56;;;;;;;11.23;3.50;;;19.50;99.90;;;;;;7286676;19;20187;-76
2023/03/21 12:17:50;;;;;;;9.83;3.30;;;19.60;99.90;;;;;;7286289;19;20265;-75
2023/03/21 12:20:21;;;;;;;13.20;3.60;;;19.50;99.90;;;;;;7182225;19;2005957;-76
2023/03/21 12:23:08;;;;;;;11.60;3.87;;;19.10;99.90;;;;;;7286200;19;20202;-76
2023/03/21 12:25:43;;;;;;;12.20;3.87;;;18.80;99.90;;;;;;7265733;19;21027;-76
2023/03/21 12:28:44;;;;;;;11.97;4.00;;;18.70;99.90;;;;;;7285935;19;20266;-75
2023/03/21 12:31:23;;;;;;;10.50;4.47;;;18.50;99.90;;;;;;7182373;19;2005075;-75
2023/03/21 12:33:58;;;;;;;9.33;3.60;;;18.30;99.90;;;;;;7287685;19;20196;-75
2023/03/21 12:36:33;;;;;;;10.20;4.00;;;18.40;99.90;;;;;;7286265;19;20185;-75
2023/03/21 12:39:12;;;;;;;12.07;4.10;;;18.50;99.90;;;;;;7286553;19;20797;-75
2023/03/21 12:41:42;;;;;;;11.97;3.70;;;18.30;99.90;;;;;;7184644;19;2005000;-76
2023/03/21 12:44:15;;;;;;;11.70;3.33;;;18.50;99.90;;;;;;7284451;19;20659;-75
2023/03/21 12:46:57;;;;;;;10.30;3.83;;;18.80;99.90;;;;;;7285335;19;20189;-76
2023/03/21 12:49:50;;;;;;;11.90;4.33;;;19.00;99.90;;;;;;7285655;19;20198;-75
2023/03/21 12:52:29;;;;;;;10.63;3.57;;;18.70;99.90;;;;;;7181696;19;2004967;-75
2023/03/21 12:55:01;;;;;;;10.43;4.03;;;18.70;99.90;;;;;;7286031;19;20186;-75
2023/03/21 12:57:49;;;;;;;10.07;3.60;;;18.50;99.90;;;;;;7286145;19;20205;-75
2023/03/21 13:00:22;;;;;;;9.43;3.83;;;18.70;99.90;;;;;;7180333;19;2006624;-75
2023/03/21 13:03:40;;;;;;;10.80;3.60;;;18.60;99.90;;;;;;7285911;19;20186;-75
2023/03/21 13:06:09;;;;;;;11.13;3.83;;;18.50;99.90;;;;;;7081454;19;2004725;-75